createdAt,value
2023-03-29T00:00:49.619Z,2.08
2023-03-29T00:03:17.057Z,2.22
2023-03-29T00:05:44.766Z,1.70
2023-03-29T00:08:14.381Z,1.70
2023-03-29T00:10:41.793Z,1.90
2023-03-29T00:13:08.367Z,2.03
2023-03-29T00:15:34.710Z,1.80
2023-03-29T00:18:01.206Z,1.92
2023-03-29T00:20:28.732Z,1.80
2023-03-29T00:22:55.686Z,1.60
2023-03-29T00:25:22.217Z,1.50
2023-03-29T00:27:48.784Z,1.70
2023-03-29T00:30:15.864Z,1.77
2023-03-29T00:32:42.749Z,1.80
2023-03-29T00:35:09.788Z,1.87
2023-03-29T00:37:36.828Z,1.85
2023-03-29T00:40:10.972Z,1.90
2023-03-29T00:42:37.567Z,1.75
2023-03-29T00:45:25.508Z,1.83
2023-03-29T00:48:00.984Z,1.47
2023-03-29T00:50:41.783Z,1.73
2023-03-29T00:53:27.254Z,1.50
2023-03-29T00:55:59.528Z,1.70
2023-03-29T00:58:36.729Z,2.13
2023-03-29T01:01:10.846Z,1.67
2023-03-29T01:03:46.600Z,1.80
2023-03-29T01:06:16.004Z,1.60
2023-03-29T01:08:50.962Z,1.77
2023-03-29T01:11:22.379Z,1.77
2023-03-29T01:13:57.960Z,1.70
2023-03-29T01:16:26.470Z,1.90
2023-03-29T01:18:52.890Z,1.52
2023-03-29T01:21:25.007Z,1.90
2023-03-29T01:24:28.333Z,1.90
2023-03-29T01:27:10.698Z,2.70
2023-03-29T01:29:40.645Z,3.58
2023-03-29T01:32:16.298Z,2.63
2023-03-29T01:35:24.133Z,1.90
2023-03-29T01:38:01.265Z,1.40
2023-03-29T01:40:28.244Z,1.63
2023-03-29T01:43:06.131Z,1.70
2023-03-29T01:45:47.446Z,1.50
2023-03-29T01:48:28.228Z,1.58
2023-03-29T01:51:01.412Z,1.50
2023-03-29T01:53:45.307Z,1.67
2023-03-29T01:56:17.265Z,1.20
2023-03-29T01:58:51.143Z,1.52
2023-03-29T02:01:25.822Z,1.55
2023-03-29T02:03:55.802Z,1.40
2023-03-29T02:06:27.213Z,1.70
2023-03-29T02:08:55.724Z,1.50
2023-03-29T02:11:24.439Z,1.48
2023-03-29T02:13:50.975Z,1.60
2023-03-29T02:16:17.599Z,2.08
2023-03-29T02:18:47.761Z,1.40
2023-03-29T02:21:30.419Z,1.52
2023-03-29T02:24:02.046Z,1.60
2023-03-29T02:26:29.161Z,1.30
2023-03-29T02:28:56.029Z,1.60
2023-03-29T02:31:37.918Z,1.60
2023-03-29T02:34:13.228Z,1.70
2023-03-29T02:36:47.059Z,1.27
2023-03-29T02:39:15.704Z,1.80
2023-03-29T02:41:48.476Z,1.40
2023-03-29T02:44:20.368Z,1.60
2023-03-29T02:46:50.699Z,1.50
2023-03-29T02:49:17.128Z,1.50
2023-03-29T02:51:47.472Z,1.70
2023-03-29T02:54:19.396Z,1.60
2023-03-29T02:56:49.183Z,1.53
2023-03-29T02:59:19.351Z,1.40
2023-03-29T03:01:45.972Z,1.60
2023-03-29T03:04:13.072Z,1.50
2023-03-29T03:06:39.586Z,1.58
2023-03-29T03:09:06.692Z,1.40
2023-03-29T03:11:33.975Z,1.40
2023-03-29T03:14:00.875Z,1.60
2023-03-29T03:16:27.929Z,1.58
2023-03-29T03:18:55.492Z,1.70
2023-03-29T03:21:22.240Z,1.73
2023-03-29T03:23:49.283Z,1.83
2023-03-29T03:26:17.788Z,1.83
2023-03-29T03:28:45.572Z,1.50
2023-03-29T03:31:15.129Z,1.60
2023-03-29T03:33:41.764Z,1.57
2023-03-29T03:36:10.158Z,1.50
2023-03-29T03:38:38.387Z,1.63
2023-03-29T03:41:06.946Z,1.90
2023-03-29T03:43:34.169Z,1.70
2023-03-29T03:46:01.298Z,1.67
2023-03-29T03:48:28.413Z,1.85
2023-03-29T03:50:58.108Z,1.80
2023-03-29T03:53:27.133Z,1.80
2023-03-29T03:55:58.014Z,1.85
2023-03-29T03:58:24.477Z,1.60
2023-03-29T04:00:51.366Z,2.00
2023-03-29T04:03:18.601Z,1.60
2023-03-29T04:05:46.682Z,2.03
2023-03-29T04:08:14.779Z,1.88
2023-03-29T04:10:41.524Z,1.70
2023-03-29T04:13:08.305Z,2.00
2023-03-29T04:15:41.108Z,2.00
2023-03-29T04:18:07.737Z,1.90
2023-03-29T04:20:34.647Z,1.70
2023-03-29T04:23:01.706Z,2.27
2023-03-29T04:25:28.394Z,2.90
2023-03-29T04:27:54.898Z,2.50
2023-03-29T04:30:21.767Z,2.40
2023-03-29T04:32:48.167Z,2.40
2023-03-29T04:35:14.644Z,8.37
2023-03-29T04:37:41.712Z,2.78
2023-03-29T04:40:09.962Z,5.82
2023-03-29T04:42:37.634Z,2.45
2023-03-29T04:45:07.221Z,1.80
2023-03-29T04:47:36.257Z,1.90
2023-03-29T04:50:03.888Z,2.20
2023-03-29T04:52:33.025Z,2.20
2023-03-29T04:55:04.445Z,2.72
2023-03-29T04:57:31.424Z,2.60
2023-03-29T04:59:57.845Z,3.00
2023-03-29T05:02:24.352Z,2.35
2023-03-29T05:04:51.120Z,2.30
2023-03-29T05:07:18.188Z,2.45
2023-03-29T05:09:45.674Z,2.00
2023-03-29T05:12:12.072Z,2.03
2023-03-29T05:14:38.403Z,1.95
2023-03-29T05:17:05.102Z,2.30
2023-03-29T05:19:31.951Z,1.73
2023-03-29T05:21:59.053Z,1.90
2023-03-29T05:24:25.408Z,2.30
2023-03-29T05:26:51.978Z,2.40
2023-03-29T05:29:18.562Z,1.95
2023-03-29T05:31:44.933Z,2.30
2023-03-29T05:34:11.682Z,2.28
2023-03-29T05:36:39.076Z,2.30
2023-03-29T05:39:06.381Z,2.30
2023-03-29T05:41:33.617Z,2.22
2023-03-29T05:43:59.971Z,2.15
2023-03-29T05:46:26.924Z,2.05
2023-03-29T05:48:53.282Z,2.50
2023-03-29T05:51:24.044Z,2.20
2023-03-29T05:53:51.687Z,2.33
2023-03-29T05:56:18.925Z,2.45
2023-03-29T05:58:49.267Z,2.40
2023-03-29T06:01:18.014Z,2.87
2023-03-29T06:03:46.211Z,2.20
2023-03-29T06:06:16.040Z,2.50
2023-03-29T06:08:42.584Z,2.20
2023-03-29T06:11:11.026Z,2.30
2023-03-29T06:13:38.800Z,2.50
2023-03-29T06:16:06.231Z,2.63
2023-03-29T06:18:33.446Z,2.50
2023-03-29T06:21:02.036Z,2.40
2023-03-29T06:23:29.313Z,2.38
2023-03-29T06:25:56.468Z,1.93
2023-03-29T06:28:23.960Z,2.40
2023-03-29T06:30:50.635Z,2.67
2023-03-29T06:33:17.232Z,2.40
2023-03-29T06:35:46.012Z,2.20
2023-03-29T06:38:12.495Z,2.00
2023-03-29T06:40:38.994Z,2.40
2023-03-29T06:43:06.588Z,2.30
2023-03-29T06:45:36.283Z,2.15
2023-03-29T06:48:04.246Z,2.40
2023-03-29T06:50:31.191Z,2.13
2023-03-29T06:52:57.632Z,2.40
2023-03-29T06:55:25.894Z,2.20
2023-03-29T06:57:53.865Z,1.90
2023-03-29T07:00:29.829Z,2.35
2023-03-29T07:02:58.612Z,2.50
2023-03-29T07:05:28.167Z,2.58
2023-03-29T07:07:57.046Z,2.47
2023-03-29T07:10:32.177Z,2.38
2023-03-29T07:13:00.648Z,2.30
2023-03-29T07:15:28.706Z,2.60
2023-03-29T07:17:55.926Z,2.47
2023-03-29T07:20:23.328Z,2.40
2023-03-29T07:22:53.704Z,2.28
2023-03-29T07:25:22.353Z,2.47
2023-03-29T07:27:49.212Z,2.30
2023-03-29T07:30:18.339Z,2.30
2023-03-29T07:32:46.365Z,2.47
2023-03-29T07:35:14.899Z,2.55
2023-03-29T07:37:42.653Z,2.58
2023-03-29T07:40:12.787Z,2.63
2023-03-29T07:42:39.573Z,2.40
2023-03-29T07:45:08.425Z,2.53
2023-03-29T07:47:35.211Z,2.28
2023-03-29T07:50:02.420Z,2.53
2023-03-29T07:52:30.005Z,2.40
2023-03-29T07:54:56.922Z,2.47
2023-03-29T07:57:25.112Z,2.40
2023-03-29T07:59:53.996Z,2.60
2023-03-29T08:02:21.068Z,2.47
2023-03-29T08:04:47.726Z,2.47
2023-03-29T08:07:17.616Z,2.15
2023-03-29T08:09:45.463Z,2.40
2023-03-29T08:12:12.114Z,2.33
2023-03-29T08:14:38.520Z,2.25
2023-03-29T08:17:04.982Z,2.03
2023-03-29T08:19:31.542Z,1.95
2023-03-29T08:21:58.752Z,2.15
2023-03-29T08:24:25.297Z,2.30
2023-03-29T08:26:51.707Z,2.17
2023-03-29T08:29:18.037Z,2.30
2023-03-29T08:31:44.430Z,2.22
2023-03-29T08:34:10.901Z,2.63
2023-03-29T08:36:37.341Z,2.08
2023-03-29T08:39:03.770Z,2.30
2023-03-29T08:41:58.167Z,2.40
2023-03-29T08:44:50.736Z,2.00
2023-03-29T08:47:17.157Z,2.30
2023-03-29T08:49:48.568Z,2.00
2023-03-29T08:52:31.124Z,2.30
2023-03-29T08:54:59.743Z,2.13
2023-03-29T08:57:31.586Z,1.85
2023-03-29T09:00:01.884Z,2.35
2023-03-29T09:02:34.314Z,2.30
2023-03-29T09:05:14.857Z,2.55
2023-03-29T09:07:42.016Z,2.07
2023-03-29T09:10:15.240Z,2.00
2023-03-29T09:12:55.503Z,2.28
2023-03-29T09:15:27.613Z,2.20
2023-03-29T09:18:11.561Z,2.45
2023-03-29T09:20:56.997Z,2.17
2023-03-29T09:23:45.201Z,2.10
2023-03-29T09:26:19.737Z,2.20
2023-03-29T09:29:15.314Z,1.85
2023-03-29T09:31:44.149Z,2.10
2023-03-29T09:34:15.888Z,2.00
2023-03-29T09:36:52.356Z,1.90
2023-03-29T09:39:21.169Z,2.10
2023-03-29T09:41:54.592Z,1.90
2023-03-29T09:44:31.118Z,2.03
2023-03-29T09:47:12.430Z,2.20
2023-03-29T09:49:44.122Z,2.20
2023-03-29T09:52:14.044Z,2.00
2023-03-29T09:54:41.109Z,1.90
2023-03-29T09:57:12.047Z,2.08
2023-03-29T09:59:38.423Z,2.10
2023-03-29T10:02:11.042Z,2.20
2023-03-29T10:04:38.558Z,2.08
2023-03-29T10:07:07.687Z,1.70
2023-03-29T10:09:34.995Z,1.90
2023-03-29T10:12:06.595Z,2.07
2023-03-29T10:14:54.187Z,1.80
2023-03-29T10:17:25.722Z,2.00
2023-03-29T10:19:56.970Z,1.67
2023-03-29T10:22:26.384Z,2.00
2023-03-29T10:24:54.841Z,2.00
2023-03-29T10:27:27.233Z,1.77
2023-03-29T10:29:55.279Z,2.10
2023-03-29T10:32:21.550Z,1.88
2023-03-29T10:34:49.234Z,1.90
2023-03-29T10:37:19.385Z,1.60
2023-03-29T10:39:48.098Z,1.92
2023-03-29T10:42:23.663Z,1.95
2023-03-29T10:44:58.400Z,2.10
2023-03-29T10:47:25.929Z,1.63
2023-03-29T10:49:58.601Z,2.00
2023-03-29T10:52:25.740Z,2.00
2023-03-29T10:54:55.729Z,2.10
2023-03-29T10:58:01.614Z,1.90
2023-03-29T11:00:33.880Z,1.90
2023-03-29T11:03:09.723Z,1.90
2023-03-29T11:05:51.542Z,2.05
2023-03-29T11:08:36.573Z,2.08
2023-03-29T11:11:44.655Z,2.00
2023-03-29T11:14:46.102Z,1.70
2023-03-29T11:17:37.302Z,1.83
2023-03-29T11:20:12.886Z,1.85
2023-03-29T11:23:27.466Z,1.77
2023-03-29T11:26:19.796Z,1.80
2023-03-29T11:28:54.337Z,1.88
2023-03-29T11:31:46.387Z,1.73
2023-03-29T11:34:18.684Z,1.92
2023-03-29T11:37:11.028Z,2.08
2023-03-29T11:39:49.887Z,2.00
2023-03-29T11:42:24.732Z,2.00
2023-03-29T11:44:55.042Z,1.90
2023-03-29T11:47:26.509Z,2.00
2023-03-29T11:49:57.345Z,1.83
2023-03-29T11:52:30.464Z,2.20
2023-03-29T11:55:05.448Z,1.88
2023-03-29T11:57:39.871Z,2.30
2023-03-29T12:00:30.544Z,2.13
2023-03-29T12:02:56.896Z,2.10
2023-03-29T12:05:32.056Z,2.10
2023-03-29T12:08:21.967Z,2.13
2023-03-29T12:10:56.086Z,2.30
2023-03-29T12:13:37.828Z,2.60
2023-03-29T12:16:13.538Z,1.95
2023-03-29T12:18:45.319Z,2.25
2023-03-29T12:21:20.039Z,2.40
2023-03-29T12:23:47.713Z,2.20
2023-03-29T12:26:33.679Z,2.63
2023-03-29T12:29:05.365Z,2.33
2023-03-29T12:31:39.506Z,2.50
2023-03-29T12:34:24.541Z,2.05
2023-03-29T12:36:53.858Z,2.10
2023-03-29T12:39:21.504Z,2.20
2023-03-29T12:41:53.391Z,2.33
2023-03-29T12:44:23.857Z,2.03
2023-03-29T12:46:59.475Z,1.80
2023-03-29T12:49:35.434Z,1.87
2023-03-29T12:52:05.514Z,1.63
2023-03-29T12:54:32.969Z,1.90
2023-03-29T12:57:19.693Z,1.67
2023-03-29T12:59:48.522Z,1.77
2023-03-29T13:02:14.936Z,1.70
2023-03-29T13:04:53.931Z,1.50
2023-03-29T13:07:23.310Z,1.60
2023-03-29T13:10:17.620Z,1.70
2023-03-29T13:12:45.904Z,1.98
2023-03-29T13:15:15.580Z,1.83
2023-03-29T13:17:46.587Z,2.35
2023-03-29T13:20:37.397Z,2.88
2023-03-29T13:23:17.763Z,2.10
2023-03-29T13:25:53.578Z,1.70
2023-03-29T13:28:33.677Z,1.70
2023-03-29T13:31:18.153Z,1.88
2023-03-29T13:34:02.894Z,1.92
2023-03-29T13:36:51.081Z,2.00
2023-03-29T13:39:29.354Z,1.98
2023-03-29T13:42:37.295Z,1.70
2023-03-29T13:45:22.224Z,1.90
2023-03-29T13:48:02.417Z,1.75
2023-03-29T13:50:39.510Z,1.70
2023-03-29T13:53:45.633Z,1.60
2023-03-29T13:56:18.801Z,1.63
2023-03-29T13:58:49.881Z,1.95
2023-03-29T14:01:25.831Z,1.80
2023-03-29T14:03:53.522Z,1.95
2023-03-29T14:06:36.528Z,1.63
2023-03-29T14:09:08.677Z,2.27
2023-03-29T14:11:36.428Z,2.15
2023-03-29T14:14:08.212Z,1.70
2023-03-29T14:16:37.259Z,1.63
2023-03-29T14:19:11.678Z,1.45
2023-03-29T14:21:38.049Z,1.50
2023-03-29T14:24:04.481Z,2.40
2023-03-29T14:26:35.815Z,1.58
2023-03-29T14:29:02.791Z,1.60
2023-03-29T14:31:36.074Z,1.60
2023-03-29T14:34:05.907Z,1.70
2023-03-29T14:36:33.574Z,1.60
2023-03-29T14:39:04.104Z,1.70
2023-03-29T14:41:32.488Z,1.52
2023-03-29T14:44:00.148Z,1.55
2023-03-29T14:46:27.364Z,1.80
2023-03-29T14:48:54.827Z,1.58
2023-03-29T14:51:23.252Z,1.63
2023-03-29T14:53:49.892Z,1.30
2023-03-29T14:56:18.120Z,1.60
2023-03-29T14:58:46.553Z,1.70
2023-03-29T15:01:17.570Z,1.80
2023-03-29T15:03:49.782Z,1.73
2023-03-29T15:06:16.915Z,1.80
2023-03-29T15:08:57.701Z,2.20
2023-03-29T15:11:29.643Z,1.50
2023-03-29T15:14:15.812Z,1.90
2023-03-29T15:16:45.470Z,2.08
2023-03-29T15:19:20.343Z,1.80
2023-03-29T15:21:50.766Z,1.90
2023-03-29T15:24:27.444Z,1.83
2023-03-29T15:27:11.313Z,1.70
2023-03-29T15:29:46.286Z,2.00
2023-03-29T15:32:24.934Z,1.90
2023-03-29T15:34:59.447Z,1.83
2023-03-29T15:37:26.209Z,2.00
2023-03-29T15:39:52.631Z,1.90
2023-03-29T15:42:19.117Z,1.88
2023-03-29T15:44:45.859Z,2.15
2023-03-29T15:47:13.297Z,1.83
2023-03-29T15:49:39.906Z,2.00
2023-03-29T15:52:06.305Z,2.10
2023-03-29T15:54:33.681Z,2.70
2023-03-29T15:57:07.127Z,2.03
2023-03-29T15:59:34.788Z,2.30
2023-03-29T16:02:01.225Z,2.40
2023-03-29T16:04:27.606Z,1.80
2023-03-29T16:06:55.703Z,2.35
2023-03-29T16:09:22.748Z,1.83
2023-03-29T16:11:49.823Z,2.10
2023-03-29T16:14:27.836Z,2.30
2023-03-29T16:16:58.182Z,1.90
2023-03-29T16:19:25.674Z,1.88
2023-03-29T16:21:53.086Z,2.25
2023-03-29T16:24:25.024Z,1.85
2023-03-29T16:26:55.696Z,2.00
2023-03-29T16:29:22.906Z,2.05
2023-03-29T16:31:50.401Z,1.80
2023-03-29T16:34:18.654Z,1.67
2023-03-29T16:36:46.524Z,2.00
2023-03-29T16:39:13.619Z,2.10
2023-03-29T16:41:41.319Z,2.10
2023-03-29T16:44:07.820Z,2.00
2023-03-29T16:46:34.605Z,1.70
2023-03-29T16:49:01.506Z,1.70
2023-03-29T16:51:27.858Z,1.70
2023-03-29T16:53:54.373Z,1.83
2023-03-29T16:56:20.703Z,1.70
2023-03-29T16:58:47.447Z,1.60
2023-03-29T17:01:15.932Z,1.50
2023-03-29T17:03:43.141Z,1.60
2023-03-29T17:06:11.056Z,1.65
2023-03-29T17:08:38.593Z,1.95
2023-03-29T17:11:06.796Z,1.58
2023-03-29T17:13:33.381Z,1.83
2023-03-29T17:16:00.131Z,1.63
2023-03-29T17:18:27.666Z,2.00
2023-03-29T17:20:58.416Z,1.83
2023-03-29T17:23:25.439Z,1.70
2023-03-29T17:25:53.969Z,1.50
2023-03-29T17:28:20.502Z,1.80
2023-03-29T17:30:46.870Z,2.00
2023-03-29T17:33:13.604Z,1.83
2023-03-29T17:35:46.460Z,1.50
2023-03-29T17:38:12.824Z,1.58
2023-03-29T17:40:39.233Z,1.50
2023-03-29T17:43:05.658Z,1.40
2023-03-29T17:45:32.241Z,1.48
2023-03-29T17:47:58.623Z,1.30
2023-03-29T17:50:25.604Z,1.30
2023-03-29T17:52:51.944Z,1.47
2023-03-29T17:55:18.675Z,1.58
2023-03-29T17:57:45.110Z,1.35
2023-03-29T18:00:13.680Z,1.98
2023-03-29T18:02:41.403Z,1.40
2023-03-29T18:05:09.386Z,1.60
2023-03-29T18:07:36.728Z,1.60
2023-03-29T18:10:03.892Z,1.50
2023-03-29T18:12:30.349Z,1.30
2023-03-29T18:14:56.958Z,1.58
2023-03-29T18:17:24.452Z,1.63
2023-03-29T18:19:51.416Z,2.03
2023-03-29T18:22:18.541Z,1.92
2023-03-29T18:24:44.980Z,2.55
2023-03-29T18:27:12.190Z,2.67
2023-03-29T18:29:39.018Z,3.17
2023-03-29T18:32:06.018Z,2.95
2023-03-29T18:34:33.347Z,2.60
2023-03-29T18:36:59.677Z,2.33
2023-03-29T18:39:27.218Z,2.20
2023-03-29T18:41:53.683Z,2.07
2023-03-29T18:44:21.795Z,2.03
2023-03-29T18:46:48.317Z,2.78
2023-03-29T18:49:14.680Z,2.40
2023-03-29T18:51:42.077Z,2.40
2023-03-29T18:54:08.946Z,1.93
2023-03-29T18:56:35.870Z,2.10
2023-03-29T18:59:06.037Z,2.00
2023-03-29T19:01:33.158Z,2.30
2023-03-29T19:03:59.593Z,2.53
2023-03-29T19:06:26.378Z,2.30
2023-03-29T19:08:53.982Z,2.10
2023-03-29T19:11:20.374Z,2.08
2023-03-29T19:13:50.078Z,2.13
2023-03-29T19:16:17.194Z,2.30
2023-03-29T19:18:43.642Z,1.70
2023-03-29T19:21:10.045Z,2.13
2023-03-29T19:23:36.544Z,2.05
2023-03-29T19:26:05.475Z,1.80
2023-03-29T19:28:33.428Z,1.98
2023-03-29T19:31:01.360Z,1.93
2023-03-29T19:33:29.095Z,1.98
2023-03-29T19:35:55.616Z,2.15
2023-03-29T19:38:22.352Z,1.88
2023-03-29T19:40:50.741Z,2.15
2023-03-29T19:43:17.964Z,2.00
2023-03-29T19:45:45.515Z,2.40
2023-03-29T19:48:21.142Z,2.10
2023-03-29T19:50:48.527Z,2.17
2023-03-29T19:53:14.962Z,2.33
2023-03-29T19:55:42.815Z,2.90
2023-03-29T19:58:09.389Z,5.63
2023-03-29T20:00:36.027Z,4.15
2023-03-29T20:03:03.022Z,3.55
2023-03-29T20:05:29.417Z,6.10
2023-03-29T20:07:56.082Z,4.83
2023-03-29T20:10:22.525Z,5.70
2023-03-29T20:12:49.224Z,4.47
2023-03-29T20:15:15.724Z,4.63
2023-03-29T20:17:42.184Z,6.05
2023-03-29T20:20:10.196Z,5.50
2023-03-29T20:22:38.078Z,4.03
2023-03-29T20:25:05.278Z,4.28
2023-03-29T20:27:31.668Z,3.70
2023-03-29T20:29:58.031Z,3.80
2023-03-29T20:32:24.378Z,3.70
2023-03-29T20:34:50.887Z,3.70
2023-03-29T20:37:17.232Z,3.35
2023-03-29T20:39:43.658Z,3.70
2023-03-29T20:42:10.134Z,3.50
2023-03-29T20:44:36.591Z,3.77
2023-03-29T20:47:07.899Z,3.30
2023-03-29T20:49:39.112Z,2.90
2023-03-29T20:52:07.967Z,2.78
2023-03-29T20:54:36.945Z,2.78
2023-03-29T20:57:04.708Z,2.17
2023-03-29T20:59:31.284Z,2.33
2023-03-29T21:01:58.199Z,2.50
2023-03-29T21:04:24.790Z,2.17
2023-03-29T21:06:51.331Z,1.90
2023-03-29T21:09:19.189Z,2.07
2023-03-29T21:11:45.630Z,2.30
2023-03-29T21:14:11.979Z,1.55
2023-03-29T21:16:41.601Z,1.77
2023-03-29T21:19:09.366Z,1.80
2023-03-29T21:21:35.966Z,1.60
2023-03-29T21:24:03.545Z,1.70
2023-03-29T21:26:30.078Z,1.90
2023-03-29T21:28:56.521Z,1.60
2023-03-29T21:31:22.999Z,1.75
2023-03-29T21:33:49.526Z,2.03
2023-03-29T21:36:16.116Z,1.70
2023-03-29T21:38:42.521Z,2.17
2023-03-29T21:41:10.643Z,2.13
2023-03-29T21:43:36.988Z,2.20
2023-03-29T21:46:03.671Z,1.90
2023-03-29T21:48:30.832Z,2.00
2023-03-29T21:50:57.374Z,1.83
2023-03-29T21:53:24.728Z,2.00
2023-03-29T21:55:51.742Z,4.10
2023-03-29T21:58:18.802Z,2.87
2023-03-29T22:00:46.661Z,2.17
2023-03-29T22:03:14.909Z,2.20
2023-03-29T22:05:41.875Z,2.20
2023-03-29T22:08:10.519Z,2.00
2023-03-29T22:10:41.114Z,1.80
2023-03-29T22:13:08.668Z,1.70
2023-03-29T22:15:35.567Z,1.45
2023-03-29T22:18:03.120Z,1.63
2023-03-29T22:20:29.570Z,1.70
2023-03-29T22:22:55.929Z,2.13
2023-03-29T22:25:23.167Z,1.60
2023-03-29T22:27:49.874Z,3.05
2023-03-29T22:30:17.249Z,2.05
2023-03-29T22:32:43.706Z,1.52
2023-03-29T22:35:10.550Z,1.60
2023-03-29T22:37:41.871Z,1.92
2023-03-29T22:40:10.292Z,1.45
2023-03-29T22:42:36.862Z,1.42
2023-03-29T22:45:03.909Z,1.48
2023-03-29T22:47:30.317Z,1.63
2023-03-29T22:49:56.663Z,1.50
2023-03-29T22:52:23.017Z,1.88
2023-03-29T22:54:49.362Z,1.40
2023-03-29T22:57:15.761Z,1.50
2023-03-29T22:59:42.217Z,1.43
2023-03-29T23:02:08.571Z,1.80
2023-03-29T23:04:36.498Z,1.67
2023-03-29T23:07:02.929Z,1.33
2023-03-29T23:09:29.265Z,1.55
2023-03-29T23:11:55.671Z,1.27
2023-03-29T23:14:22.675Z,1.45
2023-03-29T23:16:50.373Z,1.33
2023-03-29T23:19:16.708Z,1.35
2023-03-29T23:21:43.105Z,1.50
2023-03-29T23:24:09.493Z,1.30
2023-03-29T23:26:37.509Z,1.42
2023-03-29T23:29:04.041Z,1.70
2023-03-29T23:31:30.522Z,1.45
2023-03-29T23:33:56.916Z,1.40
2023-03-29T23:36:23.372Z,1.80
2023-03-29T23:38:49.996Z,1.30
2023-03-29T23:41:17.654Z,1.60
2023-03-29T23:43:46.917Z,1.50
2023-03-29T23:46:15.781Z,1.45
2023-03-29T23:48:47.076Z,1.60
2023-03-29T23:51:13.528Z,1.48
2023-03-29T23:53:40.300Z,1.40
2023-03-29T23:56:07.683Z,1.80
2023-03-29T23:58:36.827Z,1.50
